sensor_id;sensor_type;location;lat;lon;timestamp;P1;durP1;ratioP1;P2;durP2;ratioP2
13425;SDS011;6785;57.918;12.530;2023-04-24T00:01:05;28.60;;;16.97;;
13425;SDS011;6785;57.918;12.530;2023-04-24T00:03:32;23.47;;;15.70;;
13425;SDS011;6785;57.918;12.530;2023-04-24T00:05:59;25.57;;;15.53;;
13425;SDS011;6785;57.918;12.530;2023-04-24T00:08:27;24.97;;;15.60;;
13425;SDS011;6785;57.918;12.530;2023-04-24T00:10:54;21.87;;;16.20;;
13425;SDS011;6785;57.918;12.530;2023-04-24T00:13:20;24.83;;;16.30;;
13425;SDS011;6785;57.918;12.530;2023-04-24T00:15:49;24.07;;;16.47;;
13425;SDS011;6785;57.918;12.530;2023-04-24T00:18:15;25.17;;;15.83;;
13425;SDS011;6785;57.918;12.530;2023-04-24T00:20:42;28.07;;;17.53;;
13425;SDS011;6785;57.918;12.530;2023-04-24T00:23:09;24.77;;;16.23;;
13425;SDS011;6785;57.918;12.530;2023-04-24T00:25:36;25.20;;;15.40;;
13425;SDS011;6785;57.918;12.530;2023-04-24T00:28:03;27.67;;;16.37;;
13425;SDS011;6785;57.918;12.530;2023-04-24T00:30:30;28.97;;;17.40;;
13425;SDS011;6785;57.918;12.530;2023-04-24T00:32:58;27.07;;;17.03;;
13425;SDS011;6785;57.918;12.530;2023-04-24T00:35:24;29.63;;;17.53;;
13425;SDS011;6785;57.918;12.530;2023-04-24T00:37:51;28.10;;;17.60;;
13425;SDS011;6785;57.918;12.530;2023-04-24T00:40:18;32.93;;;19.60;;
13425;SDS011;6785;57.918;12.530;2023-04-24T00:42:45;29.77;;;17.73;;
13425;SDS011;6785;57.918;12.530;2023-04-24T00:45:12;30.43;;;18.20;;
13425;SDS011;6785;57.918;12.530;2023-04-24T00:47:39;35.00;;;19.87;;
13425;SDS011;6785;57.918;12.530;2023-04-24T00:50:08;40.60;;;19.50;;
13425;SDS011;6785;57.918;12.530;2023-04-24T00:52:36;30.57;;;18.27;;
13425;SDS011;6785;57.918;12.530;2023-04-24T00:55:05;30.43;;;18.50;;
13425;SDS011;6785;57.918;12.530;2023-04-24T00:57:33;31.50;;;18.80;;
13425;SDS011;6785;57.918;12.530;2023-04-24T01:00:00;31.07;;;17.60;;
13425;SDS011;6785;57.918;12.530;2023-04-24T01:02:28;27.20;;;16.70;;
13425;SDS011;6785;57.918;12.530;2023-04-24T01:04:55;29.40;;;17.70;;
13425;SDS011;6785;57.918;12.530;2023-04-24T01:07:23;30.33;;;18.23;;
13425;SDS011;6785;57.918;12.530;2023-04-24T01:09:51;28.23;;;17.27;;
13425;SDS011;6785;57.918;12.530;2023-04-24T01:12:18;28.43;;;17.80;;
13425;SDS011;6785;57.918;12.530;2023-04-24T01:14:45;31.03;;;18.37;;
13425;SDS011;6785;57.918;12.530;2023-04-24T01:17:12;28.37;;;17.23;;
13425;SDS011;6785;57.918;12.530;2023-04-24T01:19:40;29.13;;;17.93;;
13425;SDS011;6785;57.918;12.530;2023-04-24T01:22:11;31.43;;;18.13;;
13425;SDS011;6785;57.918;12.530;2023-04-24T01:24:39;31.30;;;19.07;;
13425;SDS011;6785;57.918;12.530;2023-04-24T01:27:07;35.40;;;18.13;;
13425;SDS011;6785;57.918;12.530;2023-04-24T01:29:35;34.43;;;19.23;;
13425;SDS011;6785;57.918;12.530;2023-04-24T01:32:02;30.60;;;19.13;;
13425;SDS011;6785;57.918;12.530;2023-04-24T01:34:29;36.20;;;19.33;;
13425;SDS011;6785;57.918;12.530;2023-04-24T01:36:57;31.27;;;18.57;;
13425;SDS011;6785;57.918;12.530;2023-04-24T01:39:25;30.73;;;18.93;;
13425;SDS011;6785;57.918;12.530;2023-04-24T01:41:53;32.37;;;20.20;;
13425;SDS011;6785;57.918;12.530;2023-04-24T01:44:20;33.07;;;18.80;;
13425;SDS011;6785;57.918;12.530;2023-04-24T01:46:47;41.63;;;19.90;;
13425;SDS011;6785;57.918;12.530;2023-04-24T01:49:14;39.13;;;21.40;;
13425;SDS011;6785;57.918;12.530;2023-04-24T01:51:41;34.43;;;20.23;;
13425;SDS011;6785;57.918;12.530;2023-04-24T01:54:07;37.60;;;21.53;;
13425;SDS011;6785;57.918;12.530;2023-04-24T01:56:35;40.53;;;20.27;;
13425;SDS011;6785;57.918;12.530;2023-04-24T01:59:06;42.53;;;22.03;;
13425;SDS011;6785;57.918;12.530;2023-04-24T02:01:35;40.47;;;21.07;;
13425;SDS011;6785;57.918;12.530;2023-04-24T02:04:03;36.87;;;22.03;;
13425;SDS011;6785;57.918;12.530;2023-04-24T02:06:30;44.23;;;22.57;;
13425;SDS011;6785;57.918;12.530;2023-04-24T02:08:57;39.37;;;22.17;;
13425;SDS011;6785;57.918;12.530;2023-04-24T02:11:24;43.83;;;21.77;;
13425;SDS011;6785;57.918;12.530;2023-04-24T02:13:53;43.33;;;23.03;;
13425;SDS011;6785;57.918;12.530;2023-04-24T02:16:20;37.13;;;21.03;;
13425;SDS011;6785;57.918;12.530;2023-04-24T02:18:46;37.23;;;21.03;;
13425;SDS011;6785;57.918;12.530;2023-04-24T02:21:13;32.27;;;20.53;;
13425;SDS011;6785;57.918;12.530;2023-04-24T02:23:40;36.30;;;21.17;;
13425;SDS011;6785;57.918;12.530;2023-04-24T02:26:07;33.63;;;19.00;;
13425;SDS011;6785;57.918;12.530;2023-04-24T02:28:34;32.90;;;19.00;;
13425;SDS011;6785;57.918;12.530;2023-04-24T02:31:02;29.63;;;19.67;;
13425;SDS011;6785;57.918;12.530;2023-04-24T02:33:28;28.57;;;17.90;;
13425;SDS011;6785;57.918;12.530;2023-04-24T02:35:55;31.47;;;18.73;;
13425;SDS011;6785;57.918;12.530;2023-04-24T02:38:22;29.30;;;18.43;;
13425;SDS011;6785;57.918;12.530;2023-04-24T02:40:49;29.30;;;18.57;;
13425;SDS011;6785;57.918;12.530;2023-04-24T02:43:15;31.07;;;17.47;;
13425;SDS011;6785;57.918;12.530;2023-04-24T02:45:42;33.53;;;18.63;;
13425;SDS011;6785;57.918;12.530;2023-04-24T02:48:10;31.73;;;19.60;;
13425;SDS011;6785;57.918;12.530;2023-04-24T02:50:37;27.17;;;17.77;;
13425;SDS011;6785;57.918;12.530;2023-04-24T02:53:03;31.90;;;19.40;;
13425;SDS011;6785;57.918;12.530;2023-04-24T02:55:30;30.27;;;18.67;;
13425;SDS011;6785;57.918;12.530;2023-04-24T02:57:57;33.37;;;19.77;;
13425;SDS011;6785;57.918;12.530;2023-04-24T03:00:24;36.30;;;19.23;;
13425;SDS011;6785;57.918;12.530;2023-04-24T03:02:50;39.17;;;22.13;;
13425;SDS011;6785;57.918;12.530;2023-04-24T03:05:19;38.40;;;20.90;;
13425;SDS011;6785;57.918;12.530;2023-04-24T03:07:46;38.67;;;22.07;;
13425;SDS011;6785;57.918;12.530;2023-04-24T03:10:13;40.83;;;21.43;;
13425;SDS011;6785;57.918;12.530;2023-04-24T03:12:39;38.33;;;22.57;;
13425;SDS011;6785;57.918;12.530;2023-04-24T03:15:07;40.27;;;22.37;;
13425;SDS011;6785;57.918;12.530;2023-04-24T03:17:34;50.50;;;22.90;;
13425;SDS011;6785;57.918;12.530;2023-04-24T03:20:01;33.63;;;21.67;;
13425;SDS011;6785;57.918;12.530;2023-04-24T03:22:31;37.63;;;22.27;;
13425;SDS011;6785;57.918;12.530;2023-04-24T03:24:58;35.67;;;20.43;;
13425;SDS011;6785;57.918;12.530;2023-04-24T03:27:25;36.60;;;21.10;;
13425;SDS011;6785;57.918;12.530;2023-04-24T03:29:52;36.83;;;21.60;;
13425;SDS011;6785;57.918;12.530;2023-04-24T03:32:20;41.27;;;23.63;;
13425;SDS011;6785;57.918;12.530;2023-04-24T03:34:47;44.80;;;23.47;;
13425;SDS011;6785;57.918;12.530;2023-04-24T03:37:14;39.37;;;22.73;;
13425;SDS011;6785;57.918;12.530;2023-04-24T03:39:43;38.43;;;21.33;;
13425;SDS011;6785;57.918;12.530;2023-04-24T03:42:09;39.83;;;22.10;;
13425;SDS011;6785;57.918;12.530;2023-04-24T03:44:36;35.33;;;21.17;;
13425;SDS011;6785;57.918;12.530;2023-04-24T03:47:03;34.07;;;21.47;;
13425;SDS011;6785;57.918;12.530;2023-04-24T03:49:30;40.30;;;20.77;;
13425;SDS011;6785;57.918;12.530;2023-04-24T03:51:56;33.63;;;20.30;;
13425;SDS011;6785;57.918;12.530;2023-04-24T03:54:23;39.67;;;20.60;;
13425;SDS011;6785;57.918;12.530;2023-04-24T03:56:51;42.17;;;22.43;;
13425;SDS011;6785;57.918;12.530;2023-04-24T03:59:18;37.17;;;20.80;;
13425;SDS011;6785;57.918;12.530;2023-04-24T04:01:45;36.17;;;19.97;;
13425;SDS011;6785;57.918;12.530;2023-04-24T04:04:11;39.37;;;20.50;;
13425;SDS011;6785;57.918;12.530;2023-04-24T04:06:38;37.20;;;21.10;;
13425;SDS011;6785;57.918;12.530;2023-04-24T04:09:05;36.13;;;20.73;;
13425;SDS011;6785;57.918;12.530;2023-04-24T04:11:32;31.70;;;19.10;;
13425;SDS011;6785;57.918;12.530;2023-04-24T04:14:00;40.50;;;22.17;;
13425;SDS011;6785;57.918;12.530;2023-04-24T04:16:27;34.77;;;20.47;;
13425;SDS011;6785;57.918;12.530;2023-04-24T04:18:53;35.73;;;22.07;;
13425;SDS011;6785;57.918;12.530;2023-04-24T04:21:20;39.50;;;21.33;;
13425;SDS011;6785;57.918;12.530;2023-04-24T04:23:47;39.03;;;22.63;;
13425;SDS011;6785;57.918;12.530;2023-04-24T04:26:14;43.77;;;23.20;;
13425;SDS011;6785;57.918;12.530;2023-04-24T04:28:41;39.60;;;24.23;;
13425;SDS011;6785;57.918;12.530;2023-04-24T04:31:11;40.97;;;24.00;;
13425;SDS011;6785;57.918;12.530;2023-04-24T04:33:37;41.43;;;23.77;;
13425;SDS011;6785;57.918;12.530;2023-04-24T04:36:04;40.73;;;22.77;;
13425;SDS011;6785;57.918;12.530;2023-04-24T04:38:31;34.23;;;21.20;;
13425;SDS011;6785;57.918;12.530;2023-04-24T04:40:58;37.17;;;21.50;;
13425;SDS011;6785;57.918;12.530;2023-04-24T04:43:25;38.63;;;22.03;;
13425;SDS011;6785;57.918;12.530;2023-04-24T04:45:52;36.17;;;22.40;;
13425;SDS011;6785;57.918;12.530;2023-04-24T04:48:21;37.27;;;21.07;;
13425;SDS011;6785;57.918;12.530;2023-04-24T04:50:47;28.53;;;19.23;;
13425;SDS011;6785;57.918;12.530;2023-04-24T04:53:14;34.47;;;20.57;;
13425;SDS011;6785;57.918;12.530;2023-04-24T04:55:41;37.00;;;20.10;;
13425;SDS011;6785;57.918;12.530;2023-04-24T04:58:08;32.53;;;18.87;;
13425;SDS011;6785;57.918;12.530;2023-04-24T05:00:34;32.03;;;19.13;;
13425;SDS011;6785;57.918;12.530;2023-04-24T05:03:02;31.50;;;19.37;;
13425;SDS011;6785;57.918;12.530;2023-04-24T05:05:30;30.63;;;18.83;;
13425;SDS011;6785;57.918;12.530;2023-04-24T05:07:57;25.63;;;17.63;;
13425;SDS011;6785;57.918;12.530;2023-04-24T05:10:24;24.87;;;17.33;;
13425;SDS011;6785;57.918;12.530;2023-04-24T05:12:50;26.53;;;17.83;;
13425;SDS011;6785;57.918;12.530;2023-04-24T05:15:17;21.03;;;15.90;;
13425;SDS011;6785;57.918;12.530;2023-04-24T05:17:44;29.20;;;16.07;;
13425;SDS011;6785;57.918;12.530;2023-04-24T05:20:11;22.73;;;15.97;;
13425;SDS011;6785;57.918;12.530;2023-04-24T05:22:39;26.10;;;17.13;;
13425;SDS011;6785;57.918;12.530;2023-04-24T05:25:06;27.33;;;16.10;;
13425;SDS011;6785;57.918;12.530;2023-04-24T05:27:33;23.23;;;14.57;;
13425;SDS011;6785;57.918;12.530;2023-04-24T05:30:00;24.33;;;16.60;;
13425;SDS011;6785;57.918;12.530;2023-04-24T05:32:26;21.17;;;15.83;;
13425;SDS011;6785;57.918;12.530;2023-04-24T05:34:53;23.83;;;15.63;;
13425;SDS011;6785;57.918;12.530;2023-04-24T05:37:20;26.50;;;15.57;;
13425;SDS011;6785;57.918;12.530;2023-04-24T05:39:48;18.47;;;14.13;;
13425;SDS011;6785;57.918;12.530;2023-04-24T05:42:15;20.37;;;14.43;;
13425;SDS011;6785;57.918;12.530;2023-04-24T05:44:41;21.93;;;15.00;;
13425;SDS011;6785;57.918;12.530;2023-04-24T05:47:08;20.57;;;13.53;;
13425;SDS011;6785;57.918;12.530;2023-04-24T05:49:35;20.77;;;14.20;;
13425;SDS011;6785;57.918;12.530;2023-04-24T05:52:02;24.13;;;16.63;;
13425;SDS011;6785;57.918;12.530;2023-04-24T05:54:30;24.33;;;16.30;;
13425;SDS011;6785;57.918;12.530;2023-04-24T05:56:58;25.90;;;16.60;;
13425;SDS011;6785;57.918;12.530;2023-04-24T05:59:26;22.97;;;16.17;;
13425;SDS011;6785;57.918;12.530;2023-04-24T06:01:53;21.87;;;15.60;;
13425;SDS011;6785;57.918;12.530;2023-04-24T06:04:19;23.27;;;15.40;;
13425;SDS011;6785;57.918;12.530;2023-04-24T06:06:46;20.23;;;14.30;;
13425;SDS011;6785;57.918;12.530;2023-04-24T06:09:15;19.43;;;13.53;;
13425;SDS011;6785;57.918;12.530;2023-04-24T06:11:42;19.23;;;13.80;;
13425;SDS011;6785;57.918;12.530;2023-04-24T06:14:10;19.33;;;13.67;;
13425;SDS011;6785;57.918;12.530;2023-04-24T06:16:37;22.23;;;13.27;;
13425;SDS011;6785;57.918;12.530;2023-04-24T06:19:04;19.47;;;13.47;;
13425;SDS011;6785;57.918;12.530;2023-04-24T06:21:32;17.00;;;12.53;;
13425;SDS011;6785;57.918;12.530;2023-04-24T06:23:58;18.20;;;12.77;;
13425;SDS011;6785;57.918;12.530;2023-04-24T06:26:25;16.70;;;12.87;;
13425;SDS011;6785;57.918;12.530;2023-04-24T06:28:52;18.73;;;13.00;;
13425;SDS011;6785;57.918;12.530;2023-04-24T06:31:21;16.63;;;12.60;;
13425;SDS011;6785;57.918;12.530;2023-04-24T06:33:48;15.73;;;11.70;;
13425;SDS011;6785;57.918;12.530;2023-04-24T06:36:15;18.60;;;13.00;;
13425;SDS011;6785;57.918;12.530;2023-04-24T06:38:42;15.30;;;11.33;;
13425;SDS011;6785;57.918;12.530;2023-04-24T06:41:09;15.70;;;11.63;;
13425;SDS011;6785;57.918;12.530;2023-04-24T06:43:36;16.47;;;11.47;;
13425;SDS011;6785;57.918;12.530;2023-04-24T06:46:03;15.07;;;10.97;;
13425;SDS011;6785;57.918;12.530;2023-04-24T06:48:31;16.87;;;11.63;;
13425;SDS011;6785;57.918;12.530;2023-04-24T06:50:57;17.47;;;11.80;;
13425;SDS011;6785;57.918;12.530;2023-04-24T06:53:24;16.83;;;12.80;;
13425;SDS011;6785;57.918;12.530;2023-04-24T06:55:52;16.03;;;11.47;;
13425;SDS011;6785;57.918;12.530;2023-04-24T06:58:19;16.20;;;11.17;;
13425;SDS011;6785;57.918;12.530;2023-04-24T07:00:46;16.50;;;11.00;;
13425;SDS011;6785;57.918;12.530;2023-04-24T07:03:13;13.40;;;10.43;;
13425;SDS011;6785;57.918;12.530;2023-04-24T07:05:41;12.83;;;9.47;;
13425;SDS011;6785;57.918;12.530;2023-04-24T07:08:08;14.90;;;10.13;;
13425;SDS011;6785;57.918;12.530;2023-04-24T07:10:36;14.93;;;10.57;;
13425;SDS011;6785;57.918;12.530;2023-04-24T07:13:03;14.20;;;10.07;;
13425;SDS011;6785;57.918;12.530;2023-04-24T07:15:29;14.67;;;10.43;;
13425;SDS011;6785;57.918;12.530;2023-04-24T07:17:57;15.27;;;10.43;;
13425;SDS011;6785;57.918;12.530;2023-04-24T07:20:24;14.43;;;10.37;;
13425;SDS011;6785;57.918;12.530;2023-04-24T07:22:52;14.57;;;9.90;;
13425;SDS011;6785;57.918;12.530;2023-04-24T07:25:19;15.60;;;10.37;;
13425;SDS011;6785;57.918;12.530;2023-04-24T07:27:46;13.90;;;9.07;;
13425;SDS011;6785;57.918;12.530;2023-04-24T07:30:14;13.70;;;9.80;;
13425;SDS011;6785;57.918;12.530;2023-04-24T07:32:40;13.30;;;10.17;;
13425;SDS011;6785;57.918;12.530;2023-04-24T07:35:08;12.00;;;9.53;;
13425;SDS011;6785;57.918;12.530;2023-04-24T07:37:35;11.77;;;9.40;;
13425;SDS011;6785;57.918;12.530;2023-04-24T07:40:03;13.33;;;9.53;;
13425;SDS011;6785;57.918;12.530;2023-04-24T07:42:31;14.50;;;9.97;;
13425;SDS011;6785;57.918;12.530;2023-04-24T07:44:59;13.40;;;9.77;;
13425;SDS011;6785;57.918;12.530;2023-04-24T07:47:26;17.10;;;9.70;;
13425;SDS011;6785;57.918;12.530;2023-04-24T07:49:53;14.77;;;9.97;;
13425;SDS011;6785;57.918;12.530;2023-04-24T07:52:19;13.70;;;8.50;;
13425;SDS011;6785;57.918;12.530;2023-04-24T07:54:46;12.40;;;8.67;;
13425;SDS011;6785;57.918;12.530;2023-04-24T07:57:16;12.73;;;9.23;;
13425;SDS011;6785;57.918;12.530;2023-04-24T07:59:42;11.27;;;8.87;;
13425;SDS011;6785;57.918;12.530;2023-04-24T08:02:09;13.10;;;9.17;;
13425;SDS011;6785;57.918;12.530;2023-04-24T08:04:36;13.37;;;9.77;;
13425;SDS011;6785;57.918;12.530;2023-04-24T08:07:03;11.90;;;9.10;;
13425;SDS011;6785;57.918;12.530;2023-04-24T08:09:30;15.10;;;9.33;;
13425;SDS011;6785;57.918;12.530;2023-04-24T08:11:56;10.10;;;8.60;;
13425;SDS011;6785;57.918;12.530;2023-04-24T08:14:25;15.80;;;10.17;;
13425;SDS011;6785;57.918;12.530;2023-04-24T08:16:52;13.10;;;9.83;;
13425;SDS011;6785;57.918;12.530;2023-04-24T08:19:19;13.17;;;9.23;;
13425;SDS011;6785;57.918;12.530;2023-04-24T08:21:46;15.27;;;9.23;;
13425;SDS011;6785;57.918;12.530;2023-04-24T08:24:13;13.87;;;9.87;;
13425;SDS011;6785;57.918;12.530;2023-04-24T08:26:39;13.73;;;9.87;;
13425;SDS011;6785;57.918;12.530;2023-04-24T08:29:06;12.03;;;9.20;;
13425;SDS011;6785;57.918;12.530;2023-04-24T08:31:34;14.23;;;9.57;;
13425;SDS011;6785;57.918;12.530;2023-04-24T08:34:01;13.23;;;9.07;;
13425;SDS011;6785;57.918;12.530;2023-04-24T08:36:28;11.97;;;9.13;;
13425;SDS011;6785;57.918;12.530;2023-04-24T08:38:55;12.33;;;9.50;;
13425;SDS011;6785;57.918;12.530;2023-04-24T08:41:22;11.57;;;9.00;;
13425;SDS011;6785;57.918;12.530;2023-04-24T08:43:51;10.67;;;9.20;;
13425;SDS011;6785;57.918;12.530;2023-04-24T08:46:18;12.50;;;9.87;;
13425;SDS011;6785;57.918;12.530;2023-04-24T08:48:47;11.37;;;8.70;;
13425;SDS011;6785;57.918;12.530;2023-04-24T08:51:15;13.67;;;9.07;;
13425;SDS011;6785;57.918;12.530;2023-04-24T08:53:42;12.10;;;9.57;;
13425;SDS011;6785;57.918;12.530;2023-04-24T08:56:11;12.50;;;9.43;;
13425;SDS011;6785;57.918;12.530;2023-04-24T08:58:38;13.67;;;9.83;;
13425;SDS011;6785;57.918;12.530;2023-04-24T09:01:05;14.60;;;10.13;;
13425;SDS011;6785;57.918;12.530;2023-04-24T09:03:32;13.77;;;9.40;;
13425;SDS011;6785;57.918;12.530;2023-04-24T09:06:02;12.80;;;9.60;;
13425;SDS011;6785;57.918;12.530;2023-04-24T09:08:29;12.93;;;8.73;;
13425;SDS011;6785;57.918;12.530;2023-04-24T09:10:58;11.53;;;8.63;;
13425;SDS011;6785;57.918;12.530;2023-04-24T09:13:27;12.33;;;9.57;;
13425;SDS011;6785;57.918;12.530;2023-04-24T09:15:54;13.57;;;9.67;;
13425;SDS011;6785;57.918;12.530;2023-04-24T09:18:22;13.60;;;10.13;;
13425;SDS011;6785;57.918;12.530;2023-04-24T09:20:58;15.13;;;9.37;;
13425;SDS011;6785;57.918;12.530;2023-04-24T09:23:29;16.27;;;9.97;;
13425;SDS011;6785;57.918;12.530;2023-04-24T09:25:56;14.10;;;9.80;;
13425;SDS011;6785;57.918;12.530;2023-04-24T09:28:25;13.97;;;10.10;;
13425;SDS011;6785;57.918;12.530;2023-04-24T09:31:02;13.40;;;10.20;;
13425;SDS011;6785;57.918;12.530;2023-04-24T09:33:30;14.33;;;9.80;;
13425;SDS011;6785;57.918;12.530;2023-04-24T09:35:57;13.60;;;10.17;;
13425;SDS011;6785;57.918;12.530;2023-04-24T09:38:31;14.33;;;9.57;;
13425;SDS011;6785;57.918;12.530;2023-04-24T09:41:00;13.07;;;9.23;;
13425;SDS011;6785;57.918;12.530;2023-04-24T09:43:28;13.30;;;9.90;;
13425;SDS011;6785;57.918;12.530;2023-04-24T09:45:55;13.67;;;9.87;;
13425;SDS011;6785;57.918;12.530;2023-04-24T09:48:30;11.50;;;9.20;;
13425;SDS011;6785;57.918;12.530;2023-04-24T09:50:57;12.73;;;8.93;;
13425;SDS011;6785;57.918;12.530;2023-04-24T09:53:25;15.97;;;9.90;;
13425;SDS011;6785;57.918;12.530;2023-04-24T09:55:54;11.33;;;8.87;;
13425;SDS011;6785;57.918;12.530;2023-04-24T09:58:24;11.10;;;8.70;;
13425;SDS011;6785;57.918;12.530;2023-04-24T10:00:53;13.37;;;9.50;;
13425;SDS011;6785;57.918;12.530;2023-04-24T10:03:22;12.27;;;9.37;;
13425;SDS011;6785;57.918;12.530;2023-04-24T10:05:51;12.80;;;9.17;;
13425;SDS011;6785;57.918;12.530;2023-04-24T10:08:18;12.80;;;9.53;;
13425;SDS011;6785;57.918;12.530;2023-04-24T10:10:46;12.80;;;9.33;;
13425;SDS011;6785;57.918;12.530;2023-04-24T10:13:14;14.37;;;9.53;;
13425;SDS011;6785;57.918;12.530;2023-04-24T10:15:41;12.67;;;9.73;;
13425;SDS011;6785;57.918;12.530;2023-04-24T10:18:08;15.47;;;10.17;;
13425;SDS011;6785;57.918;12.530;2023-04-24T10:20:36;14.90;;;10.33;;
13425;SDS011;6785;57.918;12.530;2023-04-24T10:23:05;12.23;;;9.57;;
13425;SDS011;6785;57.918;12.530;2023-04-24T10:25:32;12.13;;;9.83;;
13425;SDS011;6785;57.918;12.530;2023-04-24T10:28:01;14.77;;;10.67;;
13425;SDS011;6785;57.918;12.530;2023-04-24T10:30:30;13.67;;;10.20;;
13425;SDS011;6785;57.918;12.530;2023-04-24T10:33:00;12.67;;;9.73;;
13425;SDS011;6785;57.918;12.530;2023-04-24T10:35:27;13.83;;;9.37;;
13425;SDS011;6785;57.918;12.530;2023-04-24T10:37:57;12.07;;;8.53;;
13425;SDS011;6785;57.918;12.530;2023-04-24T10:40:29;9.77;;;7.83;;
13425;SDS011;6785;57.918;12.530;2023-04-24T10:42:57;10.47;;;8.00;;
13425;SDS011;6785;57.918;12.530;2023-04-24T10:45:24;10.77;;;8.40;;
13425;SDS011;6785;57.918;12.530;2023-04-24T10:47:53;8.63;;;6.53;;
13425;SDS011;6785;57.918;12.530;2023-04-24T10:50:26;10.30;;;6.53;;
13425;SDS011;6785;57.918;12.530;2023-04-24T10:52:55;6.80;;;6.10;;
13425;SDS011;6785;57.918;12.530;2023-04-24T10:55:42;9.00;;;6.07;;
13425;SDS011;6785;57.918;12.530;2023-04-24T10:58:11;9.23;;;6.77;;
13425;SDS011;6785;57.918;12.530;2023-04-24T11:00:38;7.47;;;6.27;;
13425;SDS011;6785;57.918;12.530;2023-04-24T11:03:07;8.17;;;6.13;;
13425;SDS011;6785;57.918;12.530;2023-04-24T11:05:52;7.83;;;6.20;;
13425;SDS011;6785;57.918;12.530;2023-04-24T11:08:22;7.97;;;6.07;;
13425;SDS011;6785;57.918;12.530;2023-04-24T11:10:54;7.87;;;5.93;;
13425;SDS011;6785;57.918;12.530;2023-04-24T11:13:23;6.43;;;5.40;;
13425;SDS011;6785;57.918;12.530;2023-04-24T11:18:42;7.57;;;6.00;;
13425;SDS011;6785;57.918;12.530;2023-04-24T11:21:16;5.90;;;5.30;;
13425;SDS011;6785;57.918;12.530;2023-04-24T11:23:44;7.00;;;4.93;;
13425;SDS011;6785;57.918;12.530;2023-04-24T11:26:11;9.93;;;5.50;;
13425;SDS011;6785;57.918;12.530;2023-04-24T11:28:46;6.00;;;5.10;;
13425;SDS011;6785;57.918;12.530;2023-04-24T11:34:11;5.80;;;4.83;;
13425;SDS011;6785;57.918;12.530;2023-04-24T11:36:39;5.80;;;4.70;;
13425;SDS011;6785;57.918;12.530;2023-04-24T11:39:06;6.87;;;4.70;;
13425;SDS011;6785;57.918;12.530;2023-04-24T11:41:33;4.73;;;4.20;;
13425;SDS011;6785;57.918;12.530;2023-04-24T11:44:00;5.83;;;4.63;;
13425;SDS011;6785;57.918;12.530;2023-04-24T11:46:28;5.47;;;4.13;;
13425;SDS011;6785;57.918;12.530;2023-04-24T11:48:56;5.17;;;4.30;;
13425;SDS011;6785;57.918;12.530;2023-04-24T11:51:25;4.10;;;3.60;;
13425;SDS011;6785;57.918;12.530;2023-04-24T11:53:53;6.13;;;3.60;;
13425;SDS011;6785;57.918;12.530;2023-04-24T11:56:21;3.93;;;3.57;;
13425;SDS011;6785;57.918;12.530;2023-04-24T11:58:47;3.63;;;3.33;;
13425;SDS011;6785;57.918;12.530;2023-04-24T12:01:14;3.50;;;3.20;;
13425;SDS011;6785;57.918;12.530;2023-04-24T12:03:41;4.33;;;3.70;;
13425;SDS011;6785;57.918;12.530;2023-04-24T12:06:11;3.77;;;3.17;;
13425;SDS011;6785;57.918;12.530;2023-04-24T12:08:40;4.83;;;3.73;;
13425;SDS011;6785;57.918;12.530;2023-04-24T12:11:07;3.40;;;3.10;;
13425;SDS011;6785;57.918;12.530;2023-04-24T12:13:34;3.70;;;3.10;;
13425;SDS011;6785;57.918;12.530;2023-04-24T12:16:01;4.13;;;3.60;;
13425;SDS011;6785;57.918;12.530;2023-04-24T12:18:29;4.73;;;3.50;;
13425;SDS011;6785;57.918;12.530;2023-04-24T12:23:43;3.97;;;3.33;;
13425;SDS011;6785;57.918;12.530;2023-04-24T12:26:10;6.93;;;3.30;;
13425;SDS011;6785;57.918;12.530;2023-04-24T12:28:38;3.20;;;2.80;;
13425;SDS011;6785;57.918;12.530;2023-04-24T12:31:05;3.57;;;3.23;;
13425;SDS011;6785;57.918;12.530;2023-04-24T12:33:33;4.57;;;2.90;;
13425;SDS011;6785;57.918;12.530;2023-04-24T12:36:01;5.37;;;3.33;;
13425;SDS011;6785;57.918;12.530;2023-04-24T12:38:28;3.30;;;2.87;;
13425;SDS011;6785;57.918;12.530;2023-04-24T12:41:03;3.83;;;2.93;;
13425;SDS011;6785;57.918;12.530;2023-04-24T12:43:31;4.77;;;3.10;;
13425;SDS011;6785;57.918;12.530;2023-04-24T12:45:58;4.50;;;3.13;;
13425;SDS011;6785;57.918;12.530;2023-04-24T12:48:25;3.23;;;2.93;;
13425;SDS011;6785;57.918;12.530;2023-04-24T12:50:52;6.10;;;2.77;;
13425;SDS011;6785;57.918;12.530;2023-04-24T12:53:19;3.97;;;2.70;;
13425;SDS011;6785;57.918;12.530;2023-04-24T12:55:45;3.80;;;2.63;;
13425;SDS011;6785;57.918;12.530;2023-04-24T12:58:18;2.90;;;2.60;;
13425;SDS011;6785;57.918;12.530;2023-04-24T13:00:46;3.93;;;3.20;;
13425;SDS011;6785;57.918;12.530;2023-04-24T13:03:12;3.23;;;2.50;;
13425;SDS011;6785;57.918;12.530;2023-04-24T13:05:40;4.87;;;3.13;;
13425;SDS011;6785;57.918;12.530;2023-04-24T13:08:07;3.40;;;3.10;;
13425;SDS011;6785;57.918;12.530;2023-04-24T13:10:34;6.17;;;3.10;;
13425;SDS011;6785;57.918;12.530;2023-04-24T13:13:01;3.63;;;2.80;;
13425;SDS011;6785;57.918;12.530;2023-04-24T13:15:30;3.00;;;2.70;;
13425;SDS011;6785;57.918;12.530;2023-04-24T13:17:56;5.67;;;3.00;;
13425;SDS011;6785;57.918;12.530;2023-04-24T13:20:23;3.37;;;2.93;;
13425;SDS011;6785;57.918;12.530;2023-04-24T13:22:51;5.17;;;2.50;;
13425;SDS011;6785;57.918;12.530;2023-04-24T13:25:17;3.10;;;2.80;;
13425;SDS011;6785;57.918;12.530;2023-04-24T13:27:45;3.30;;;3.00;;
13425;SDS011;6785;57.918;12.530;2023-04-24T13:30:12;4.07;;;3.53;;
13425;SDS011;6785;57.918;12.530;2023-04-24T13:32:40;3.17;;;2.87;;
13425;SDS011;6785;57.918;12.530;2023-04-24T13:35:07;3.80;;;3.00;;
13425;SDS011;6785;57.918;12.530;2023-04-24T13:37:34;2.83;;;2.53;;
13425;SDS011;6785;57.918;12.530;2023-04-24T13:40:01;2.87;;;2.67;;
13425;SDS011;6785;57.918;12.530;2023-04-24T13:42:30;3.23;;;2.70;;
13425;SDS011;6785;57.918;12.530;2023-04-24T13:44:57;3.33;;;3.03;;
13425;SDS011;6785;57.918;12.530;2023-04-24T13:47:24;4.07;;;2.80;;
13425;SDS011;6785;57.918;12.530;2023-04-24T13:49:52;4.43;;;2.60;;
13425;SDS011;6785;57.918;12.530;2023-04-24T13:52:19;3.43;;;2.97;;
13425;SDS011;6785;57.918;12.530;2023-04-24T13:54:46;3.43;;;3.00;;
13425;SDS011;6785;57.918;12.530;2023-04-24T13:57:13;2.70;;;2.50;;
13425;SDS011;6785;57.918;12.530;2023-04-24T13:59:41;3.23;;;2.37;;
13425;SDS011;6785;57.918;12.530;2023-04-24T14:02:08;4.07;;;2.50;;
13425;SDS011;6785;57.918;12.530;2023-04-24T14:04:35;4.30;;;2.70;;
13425;SDS011;6785;57.918;12.530;2023-04-24T14:07:03;3.57;;;2.47;;
13425;SDS011;6785;57.918;12.530;2023-04-24T14:09:29;2.50;;;2.30;;
13425;SDS011;6785;57.918;12.530;2023-04-24T14:11:56;2.43;;;2.10;;
13425;SDS011;6785;57.918;12.530;2023-04-24T14:14:23;3.37;;;2.50;;
13425;SDS011;6785;57.918;12.530;2023-04-24T14:16:50;3.03;;;2.53;;
13425;SDS011;6785;57.918;12.530;2023-04-24T14:19:17;2.87;;;2.57;;
13425;SDS011;6785;57.918;12.530;2023-04-24T14:21:43;2.80;;;2.50;;
13425;SDS011;6785;57.918;12.530;2023-04-24T14:24:12;4.37;;;2.40;;
13425;SDS011;6785;57.918;12.530;2023-04-24T14:26:38;4.93;;;2.20;;
13425;SDS011;6785;57.918;12.530;2023-04-24T14:29:05;2.40;;;2.20;;
13425;SDS011;6785;57.918;12.530;2023-04-24T14:31:32;2.40;;;2.20;;
13425;SDS011;6785;57.918;12.530;2023-04-24T14:33:58;3.97;;;2.60;;
13425;SDS011;6785;57.918;12.530;2023-04-24T14:36:25;3.87;;;2.40;;
13425;SDS011;6785;57.918;12.530;2023-04-24T14:38:52;2.53;;;2.33;;
13425;SDS011;6785;57.918;12.530;2023-04-24T14:41:20;2.57;;;2.20;;